createdAt,value
2023-08-01T00:03:30.625Z,17.55
2023-08-01T00:08:33.720Z,17.87
2023-08-01T00:13:36.625Z,18.69
2023-08-01T00:18:39.525Z,19.10
2023-08-01T00:23:42.593Z,19.34
2023-08-01T00:28:45.444Z,19.61
2023-08-01T00:33:48.749Z,19.84
2023-08-01T00:38:51.416Z,19.92
2023-08-01T00:43:54.295Z,19.80
2023-08-01T00:48:59.488Z,19.57
2023-08-01T00:54:02.326Z,19.45
2023-08-01T00:59:07.020Z,19.31
2023-08-01T01:04:10.445Z,19.20
2023-08-01T01:09:21.086Z,19.20
2023-08-01T01:14:25.212Z,19.28
2023-08-01T01:19:28.656Z,19.43
2023-08-01T01:24:31.755Z,19.53
2023-08-01T01:29:35.384Z,19.61
2023-08-01T01:34:39.475Z,19.78
2023-08-01T01:39:42.228Z,19.86
2023-08-01T01:44:45.009Z,19.89
2023-08-01T01:49:48.703Z,19.93
2023-08-01T01:54:51.366Z,19.89
2023-08-01T01:59:54.183Z,19.88
2023-08-01T02:04:57.626Z,20.06
2023-08-01T02:10:03.487Z,20.10
2023-08-01T02:15:12.042Z,20.15
2023-08-01T02:20:15.392Z,20.25
2023-08-01T02:25:18.393Z,20.36
2023-08-01T02:30:22.558Z,20.42
2023-08-01T02:35:25.586Z,20.46
2023-08-01T02:40:28.410Z,20.58
2023-08-01T02:45:31.152Z,20.74
2023-08-01T02:50:35.186Z,20.85
2023-08-01T02:55:38.106Z,20.98
2023-08-01T03:00:41.800Z,21.07
2023-08-01T03:05:45.021Z,21.21
2023-08-01T03:10:47.834Z,21.31
2023-08-01T03:15:50.615Z,21.45
2023-08-01T03:20:53.544Z,21.60
2023-08-01T03:25:56.496Z,21.67
2023-08-01T03:30:59.284Z,21.76
2023-08-01T03:36:02.619Z,21.87
2023-08-01T03:41:05.874Z,22.09
2023-08-01T03:46:09.202Z,22.49
2023-08-01T03:51:12.566Z,22.75
2023-08-01T03:56:15.654Z,23.06
2023-08-01T04:01:18.602Z,23.55
2023-08-01T04:06:21.723Z,24.10
2023-08-01T04:11:24.664Z,24.58
2023-08-01T04:16:27.411Z,24.59
2023-08-01T04:21:30.663Z,24.25
2023-08-01T04:26:33.314Z,23.99
2023-08-01T04:31:36.370Z,24.15
2023-08-01T04:36:40.643Z,24.48
2023-08-01T04:41:43.514Z,25.01
2023-08-01T04:46:46.247Z,25.48
2023-08-01T04:51:53.720Z,25.89
2023-08-01T04:56:56.979Z,25.95
2023-08-01T05:02:00.375Z,26.44
2023-08-01T05:07:05.142Z,26.44
2023-08-01T05:12:08.483Z,26.66
2023-08-01T05:17:11.044Z,27.09
2023-08-01T05:22:15.002Z,27.03
2023-08-01T05:27:17.727Z,27.04
2023-08-01T05:32:20.352Z,27.05
2023-08-01T05:37:23.460Z,27.01
2023-08-01T05:42:26.126Z,27.33
2023-08-01T05:47:28.835Z,26.70
2023-08-01T05:52:32.717Z,26.48
2023-08-01T05:57:35.930Z,26.64
2023-08-01T06:02:39.011Z,26.44
2023-08-01T06:07:43.109Z,26.58
2023-08-01T06:12:45.942Z,26.81
2023-08-01T06:17:49.823Z,27.22
2023-08-01T06:22:53.327Z,27.20
2023-08-01T06:27:56.255Z,27.31
2023-08-01T06:32:59.106Z,27.90
2023-08-01T06:38:02.213Z,28.24
2023-08-01T06:43:05.644Z,28.52
2023-08-01T06:48:08.889Z,28.66
2023-08-01T06:53:12.486Z,28.27
2023-08-01T06:58:15.261Z,27.35
2023-08-01T07:03:18.105Z,26.66
2023-08-01T07:08:22.741Z,26.22
2023-08-01T07:13:26.740Z,25.87
2023-08-01T07:18:29.542Z,23.11
2023-08-01T07:23:37.460Z,22.82
2023-08-01T07:28:40.365Z,23.62
2023-08-01T07:33:43.529Z,24.49
2023-08-01T07:38:46.243Z,24.79
2023-08-01T07:43:53.397Z,25.15
2023-08-01T07:48:56.813Z,25.46
2023-08-01T07:53:59.809Z,25.68
2023-08-01T07:59:02.813Z,25.92
2023-08-01T08:04:06.651Z,26.49
2023-08-01T08:09:09.533Z,27.37
2023-08-01T08:14:13.044Z,27.79
2023-08-01T08:19:16.005Z,27.47
2023-08-01T08:24:19.625Z,27.05
2023-08-01T08:29:22.495Z,27.08
2023-08-01T08:34:25.572Z,26.80
2023-08-01T08:39:28.329Z,26.04
2023-08-01T08:44:32.067Z,25.50
2023-08-01T08:49:36.408Z,24.50
2023-08-01T08:54:40.277Z,24.60
2023-08-01T08:59:43.025Z,25.44
2023-08-01T09:04:46.411Z,26.88
2023-08-01T09:09:49.795Z,27.85
2023-08-01T09:14:52.978Z,28.15
2023-08-01T09:20:09.431Z,28.35
2023-08-01T09:25:12.983Z,28.90
2023-08-01T09:30:19.008Z,28.92
2023-08-01T09:35:23.087Z,28.80
2023-08-01T09:40:25.976Z,28.16
2023-08-01T09:45:28.719Z,27.46
2023-08-01T09:50:32.650Z,27.18
2023-08-01T09:55:36.451Z,27.03
2023-08-01T10:00:39.239Z,27.02
2023-08-01T10:05:43.526Z,27.09
2023-08-01T10:10:46.308Z,27.08
2023-08-01T10:15:49.780Z,27.34
2023-08-01T10:20:53.574Z,27.35
2023-08-01T10:25:57.049Z,27.35
2023-08-01T10:31:13.190Z,27.70
2023-08-01T10:36:18.965Z,27.90
2023-08-01T10:41:23.654Z,27.99
2023-08-01T10:46:26.817Z,27.65
2023-08-01T10:51:37.403Z,27.13
2023-08-01T10:56:40.773Z,26.74
2023-08-01T11:01:54.567Z,26.06
2023-08-01T11:06:58.385Z,25.75
2023-08-01T11:12:02.359Z,25.58
2023-08-01T11:17:05.329Z,25.46
2023-08-01T11:22:11.827Z,25.31
2023-08-01T11:27:14.567Z,25.59
2023-08-01T11:32:18.137Z,25.91
2023-08-01T11:37:22.684Z,26.33
2023-08-01T11:42:25.814Z,26.77
2023-08-01T11:47:28.654Z,26.83
2023-08-01T11:52:32.471Z,26.87
2023-08-01T11:57:35.125Z,27.01
2023-08-01T12:02:38.593Z,26.96
2023-08-01T12:07:42.013Z,26.71
2023-08-01T12:12:49.671Z,26.27
2023-08-01T12:17:52.419Z,25.67
2023-08-01T12:22:56.201Z,25.18
2023-08-01T12:27:58.970Z,25.02
2023-08-01T12:33:02.135Z,25.07
2023-08-01T12:38:05.319Z,25.19
2023-08-01T12:43:07.990Z,26.63
2023-08-01T12:48:11.578Z,27.61
2023-08-01T12:53:15.257Z,27.20
2023-08-01T12:58:18.608Z,26.79
2023-08-01T13:03:21.524Z,26.81
2023-08-01T13:08:25.386Z,26.42
2023-08-01T13:13:28.506Z,28.14
2023-08-01T13:18:31.372Z,30.22
2023-08-01T13:23:34.262Z,31.32
2023-08-01T13:28:37.002Z,31.50
2023-08-01T13:33:39.846Z,31.21
2023-08-01T13:38:43.612Z,30.99
2023-08-01T13:43:46.393Z,28.19
2023-08-01T13:48:49.893Z,25.71
2023-08-01T13:53:52.626Z,24.24
2023-08-01T13:58:55.523Z,23.27
2023-08-01T14:03:58.640Z,22.58
2023-08-01T14:09:01.541Z,22.07
2023-08-01T14:14:04.969Z,21.66
2023-08-01T14:19:10.104Z,21.29
2023-08-01T14:24:12.764Z,21.12
2023-08-01T14:29:15.458Z,21.00
2023-08-01T14:34:19.572Z,20.86
2023-08-01T14:39:23.251Z,20.70
2023-08-01T14:44:26.360Z,20.49
2023-08-01T14:49:30.971Z,20.25
2023-08-01T14:54:40.886Z,20.06
2023-08-01T14:59:45.149Z,19.95
2023-08-01T15:04:55.076Z,19.85
2023-08-01T15:09:58.231Z,19.60
2023-08-01T15:15:01.133Z,19.49
2023-08-01T15:20:05.158Z,19.46
2023-08-01T15:25:08.185Z,19.38
2023-08-01T15:30:11.253Z,19.29
2023-08-01T15:35:15.814Z,19.17
2023-08-01T15:40:18.750Z,19.12
2023-08-01T15:45:23.029Z,19.04
2023-08-01T15:50:26.440Z,18.98
2023-08-01T15:55:29.860Z,18.90
2023-08-01T16:00:33.959Z,18.81
2023-08-01T16:05:36.935Z,18.80
2023-08-01T16:10:41.601Z,18.76
2023-08-01T16:15:44.401Z,18.67
2023-08-01T16:20:47.747Z,18.62
2023-08-01T16:25:50.568Z,18.64
2023-08-01T16:30:53.807Z,18.50
2023-08-01T16:35:57.301Z,18.47
2023-08-01T16:41:01.158Z,18.42
2023-08-01T16:46:04.652Z,18.29
2023-08-01T16:51:08.645Z,18.21
2023-08-01T16:56:12.860Z,18.13
2023-08-01T17:01:15.655Z,18.14
2023-08-01T17:06:19.277Z,18.23
2023-08-01T17:11:22.162Z,18.25
2023-08-01T17:16:24.886Z,18.25
2023-08-01T17:21:27.851Z,18.15
2023-08-01T17:26:30.753Z,18.00
2023-08-01T17:31:35.424Z,17.95
2023-08-01T17:36:39.119Z,17.91
2023-08-01T17:41:42.647Z,17.90
2023-08-01T17:46:45.375Z,17.94
2023-08-01T17:51:48.357Z,17.93
2023-08-01T17:56:52.111Z,17.93
2023-08-01T18:01:56.213Z,17.96
2023-08-01T18:06:59.501Z,17.98
2023-08-01T18:12:02.398Z,17.97
2023-08-01T18:17:05.954Z,17.88
2023-08-01T18:22:09.165Z,17.78
2023-08-01T18:27:11.838Z,17.74
2023-08-01T18:32:15.392Z,17.72
2023-08-01T18:37:18.614Z,17.56
2023-08-01T18:42:21.653Z,17.45
2023-08-01T18:47:24.810Z,17.40
2023-08-01T18:52:31.163Z,17.34
2023-08-01T18:57:34.001Z,17.34
2023-08-01T19:02:37.443Z,17.31
2023-08-01T19:07:40.490Z,17.29
2023-08-01T19:12:43.853Z,17.20
2023-08-01T19:17:46.643Z,17.15
2023-08-01T19:22:51.377Z,17.13
2023-08-01T19:27:54.292Z,17.09
2023-08-01T19:32:57.013Z,17.03
2023-08-01T19:38:00.985Z,17.06
2023-08-01T19:43:03.779Z,17.06
2023-08-01T19:48:07.437Z,17.01
2023-08-01T19:53:10.673Z,16.99
2023-08-01T19:58:13.471Z,16.94
2023-08-01T20:03:16.376Z,16.89
2023-08-01T20:08:19.965Z,16.81
2023-08-01T20:13:22.816Z,16.75
2023-08-01T20:18:26.186Z,16.75
2023-08-01T20:23:30.531Z,16.74
2023-08-01T20:28:33.921Z,16.74
2023-08-01T20:33:37.072Z,16.69
2023-08-01T20:38:40.541Z,16.62
2023-08-01T20:43:43.756Z,16.58
2023-08-01T20:48:46.413Z,16.56
2023-08-01T20:53:51.329Z,16.48
2023-08-01T20:58:53.995Z,16.40
2023-08-01T21:03:57.124Z,16.32
2023-08-01T21:09:05.493Z,16.26
2023-08-01T21:14:09.472Z,16.19
2023-08-01T21:19:12.924Z,16.18
2023-08-01T21:24:15.634Z,16.18
2023-08-01T21:29:18.329Z,16.14
2023-08-01T21:34:21.492Z,16.11
2023-08-01T21:39:24.364Z,16.08
2023-08-01T21:44:27.541Z,16.06
2023-08-01T21:49:30.388Z,16.02
2023-08-01T21:54:33.618Z,15.98
2023-08-01T21:59:36.578Z,15.93
2023-08-01T22:04:40.357Z,15.93
2023-08-01T22:09:43.784Z,15.91
2023-08-01T22:14:48.069Z,15.90
2023-08-01T22:19:51.284Z,15.89
2023-08-01T22:24:54.302Z,15.95
2023-08-01T22:29:57.062Z,15.98
2023-08-01T22:35:00.157Z,16.00
2023-08-01T22:40:03.241Z,16.05
2023-08-01T22:45:06.990Z,16.09
2023-08-01T22:50:10.751Z,16.17
2023-08-01T22:55:14.164Z,16.25
2023-08-01T23:00:17.029Z,16.34
2023-08-01T23:05:21.878Z,16.45
2023-08-01T23:10:38.496Z,16.53
2023-08-01T23:15:48.047Z,16.66
2023-08-01T23:20:56.689Z,16.79
2023-08-01T23:26:09.772Z,16.94
2023-08-01T23:31:13.292Z,17.06
2023-08-01T23:36:16.514Z,17.20
2023-08-01T23:41:19.656Z,17.37
2023-08-01T23:46:24.171Z,17.56
2023-08-01T23:51:28.228Z,17.74
2023-08-01T23:56:30.982Z,17.88
